PWSweather.com
Personal Weather Stations
Station Observations
KMAMEDFI2
Medfield, MA 02052

Medfield, MA 02052

Lat: 42.1900822, Lon: -71.3296889

Elevation: 138

Station Type: Rainwise WS MK-III

http://www.medfieldweather.com

Latest ConditionsUpdated 4:20:00 AM EDT Thursday, Oct 2, 2014
Currently Today's Max Today's Min Today's Average
Temperature 55.8°F13.2°C 56.3°F13.5°C 55.8°F13.2°C 56.0°F13.3°C
Dew Point 55.0°F12.8°C 55.5°F13.1°C 55.0°F12.8°C 55.2°F12.9°C
Winds 1.5 mph SE2.4 kmh SE 3.3 mph NNW5.3 kmh NNW - 1.7 mph 2.7 kmh
Wind Gusts 2.6 mph4.2 kmh 6.5 mph10.5 kmh - -
Humidity 97% 97% 97% 97%
Pressure 30.03 in1016.9 mb 30.03 in1016.9 mb 30.02 in1016.6 mb -
Hour Temp Dew Point Humidity Winds Wind Gusts Pressure Precip Precip Rate Daily Precip Total
04:20 AM 55.8°F13.2°C 55.0°F12.8°C 97% 1.5 mph SE2.4 kmh SE 2.6 mph4.2 kmh 30.03 in1016.9 mb 0.00 in0.0 mm 0.00 in/hr0.0 mm/hr 0.00 in0.0 mm
04:10 AM 55.8°F13.2°C 55.0°F12.8°C 97% 2.8 mph ESE4.5 kmh ESE 5.2 mph8.4 kmh 30.03 in1016.9 mb 0.00 in0.0 mm 0.00 in/hr0.0 mm/hr 0.00 in0.0 mm
04:00 AM 55.8°F13.2°C 55.0°F12.8°C 97% 1.7 mph ENE2.7 kmh ENE 2.6 mph4.2 kmh 30.03 in1016.9 mb 0.00 in0.0 mm 0.00 in/hr0.0 mm/hr 0.00 in0.0 mm
03:50 AM 55.9°F13.3°C 55.0°F12.8°C 97% 2.4 mph S3.9 kmh S 5.2 mph8.4 kmh 30.03 in1016.9 mb 0.00 in0.0 mm 0.00 in/hr0.0 mm/hr 0.00 in0.0 mm
03:40 AM 55.9°F13.3°C 55.1°F12.8°C 97% 1.6 mph W2.6 kmh W 2.6 mph4.2 kmh 30.02 in1016.6 mb 0.00 in0.0 mm 0.00 in/hr0.0 mm/hr 0.00 in0.0 mm
03:30 AM 55.9°F13.3°C 55.1°F12.8°C 97% 2.0 mph E3.2 kmh E 3.9 mph6.3 kmh 30.02 in1016.6 mb 0.00 in0.0 mm 0.00 in/hr0.0 mm/hr 0.00 in0.0 mm
03:20 AM 55.9°F13.3°C 55.1°F12.8°C 97% 1.6 mph SSW2.6 kmh SSW 2.6 mph4.2 kmh 30.02 in1016.6 mb 0.00 in0.0 mm 0.00 in/hr0.0 mm/hr 0.00 in0.0 mm
03:10 AM 55.9°F13.3°C 55.1°F12.8°C 97% 3.3 mph NNW5.3 kmh NNW 6.5 mph10.5 kmh 30.02 in1016.6 mb 0.00 in0.0 mm 0.00 in/hr0.0 mm/hr 0.00 in0.0 mm
03:00 AM 55.9°F13.3°C 55.1°F12.8°C 97% 0.5 mph W0.8 kmh W 5.2 mph8.4 kmh 30.02 in1016.6 mb 0.00 in0.0 mm 0.00 in/hr0.0 mm/hr 0.00 in0.0 mm
02:50 AM 55.9°F13.3°C 55.1°F12.8°C 97% 0.2 mph E0.3 kmh E 2.6 mph4.2 kmh 30.02 in1016.6 mb 0.00 in0.0 mm 0.00 in/hr0.0 mm/hr 0.00 in0.0 mm
02:40 AM 55.9°F13.3°C 55.1°F12.8°C 97% 1.6 mph E2.6 kmh E 2.6 mph4.2 kmh 30.02 in1016.6 mb 0.00 in0.0 mm 0.00 in/hr0.0 mm/hr 0.00 in0.0 mm
02:30 AM 55.9°F13.3°C 55.1°F12.8°C 97% 1.0 mph N1.6 kmh N 6.5 mph10.5 kmh 30.02 in1016.6 mb 0.00 in0.0 mm 0.00 in/hr0.0 mm/hr 0.00 in0.0 mm
02:20 AM 55.9°F13.3°C 55.1°F12.8°C 97% 1.6 mph SE2.6 kmh SE 2.6 mph4.2 kmh 30.03 in1016.9 mb 0.00 in0.0 mm 0.00 in/hr0.0 mm/hr 0.00 in0.0 mm
02:10 AM 55.9°F13.3°C 55.1°F12.8°C 97% 1.9 mph SSW3.1 kmh SSW 2.6 mph4.2 kmh 30.03 in1016.9 mb 0.00 in0.0 mm 0.00 in/hr0.0 mm/hr 0.00 in0.0 mm
02:00 AM 55.9°F13.3°C 55.1°F12.8°C 97% 0.8 mph SW1.3 kmh SW 5.2 mph8.4 kmh 30.03 in1016.9 mb 0.00 in0.0 mm 0.00 in/hr0.0 mm/hr 0.00 in0.0 mm
01:50 AM 56.0°F13.3°C 55.1°F12.8°C 97% 1.3 mph W2.1 kmh W 1.3 mph2.1 kmh 30.03 in1016.9 mb 0.00 in0.0 mm 0.00 in/hr0.0 mm/hr 0.00 in0.0 mm
01:40 AM 56.0°F13.3°C 55.2°F12.9°C 97% 1.8 mph SE2.9 kmh SE 2.6 mph4.2 kmh 30.02 in1016.6 mb 0.00 in0.0 mm 0.00 in/hr0.0 mm/hr 0.00 in0.0 mm
01:30 AM 56.1°F13.4°C 55.2°F12.9°C 97% 2.3 mph NE3.7 kmh NE 3.9 mph6.3 kmh 30.02 in1016.6 mb 0.00 in0.0 mm 0.00 in/hr0.0 mm/hr 0.00 in0.0 mm
01:20 AM 56.1°F13.4°C 55.3°F12.9°C 97% 1.1 mph SE1.8 kmh SE 2.6 mph4.2 kmh 30.02 in1016.6 mb 0.00 in0.0 mm 0.00 in/hr0.0 mm/hr 0.00 in0.0 mm
01:10 AM 56.1°F13.4°C 55.3°F12.9°C 97% 1.8 mph E2.9 kmh E 2.6 mph4.2 kmh 30.02 in1016.6 mb 0.00 in0.0 mm 0.00 in/hr0.0 mm/hr 0.00 in0.0 mm
01:00 AM 56.1°F13.4°C 55.3°F12.9°C 97% 0.8 mph SW1.3 kmh SW 2.6 mph4.2 kmh 30.02 in1016.6 mb 0.00 in0.0 mm 0.00 in/hr0.0 mm/hr 0.00 in0.0 mm
12:50 AM 56.2°F13.4°C 55.3°F12.9°C 97% 1.9 mph ENE3.1 kmh ENE 6.5 mph10.5 kmh 30.02 in1016.6 mb 0.00 in0.0 mm 0.00 in/hr0.0 mm/hr 0.00 in0.0 mm
12:40 AM 56.2°F13.4°C 55.4°F13.0°C 97% 2.2 mph S3.5 kmh S 2.6 mph4.2 kmh 30.02 in1016.6 mb 0.00 in0.0 mm 0.00 in/hr0.0 mm/hr 0.00 in0.0 mm
12:30 AM 56.2°F13.4°C 55.4°F13.0°C 97% 2.3 mph NW3.7 kmh NW 2.6 mph4.2 kmh 30.02 in1016.6 mb 0.00 in0.0 mm 0.00 in/hr0.0 mm/hr 0.00 in0.0 mm
12:20 AM 56.3°F13.5°C 55.4°F13.0°C 97% 2.0 mph NNW3.2 kmh NNW 2.6 mph4.2 kmh 30.02 in1016.6 mb 0.00 in0.0 mm 0.00 in/hr0.0 mm/hr 0.00 in0.0 mm
12:10 AM 56.3°F13.5°C 55.5°F13.1°C 97% 1.9 mph SE3.1 kmh SE 2.6 mph4.2 kmh 30.03 in1016.9 mb 0.00 in0.0 mm 0.00 in/hr0.0 mm/hr 0.00 in0.0 mm
12:00 AM 56.2°F13.4°C 55.4°F13.0°C 97% 2.4 mph NNW3.9 kmh NNW 2.6 mph4.2 kmh 30.03 in1016.9 mb 0.00 in0.0 mm 0.00 in/hr0.0 mm/hr 0.00 in0.0 mm